Catron, Missouri
Current Conditions -  °F | °C
As of 7:53 AM on Friday 19 Dec 2014 (Local Time) from KPOF Reporting Station
Overcast Overcast  
Wind Chill: 29°   Ceiling: 3400
Heat Index: 35°   Visibility: 7mi
Dew Point: 29°   Wind: 8mph
Humidity: 78%   Direction: 30°NNE
Pressure: 30.28"   Gusts: NA
Location:  36.61°N, 89.7°W
Report Text: KPOF 191353Z AUTO 03007KT 7SM OVC034 02/M02 A3028 RMK AO2 SLP258 T00171017
Loading
Personal Weather Stations






























Interactive Weather Map New forecast layout! Learn more

10-Day Weather Forecast

Advertisements
Track Severe Weather on mobile